sensor_id;sensor_type;location;lat;lon;timestamp;temperature;humidity
23130;DHT22;11734;51.046;13.778;2022-09-09T00:04:03;14.90;99.90
23130;DHT22;11734;51.046;13.778;2022-09-09T00:18:30;14.80;99.90
23130;DHT22;11734;51.046;13.778;2022-09-09T00:21:16;14.80;99.90
23130;DHT22;11734;51.046;13.778;2022-09-09T00:23:52;14.70;99.90
23130;DHT22;11734;51.046;13.778;2022-09-09T00:26:42;14.70;99.90
23130;DHT22;11734;51.046;13.778;2022-09-09T00:47:58;14.70;99.90
23130;DHT22;11734;51.046;13.778;2022-09-09T00:51:07;14.70;99.90
23130;DHT22;11734;51.046;13.778;2022-09-09T00:54:08;14.60;99.90
23130;DHT22;11734;51.046;13.778;2022-09-09T01:09:58;14.60;99.90
23130;DHT22;11734;51.046;13.778;2022-09-09T01:12:43;14.40;99.90
23130;DHT22;11734;51.046;13.778;2022-09-09T01:15:30;14.30;99.90
23130;DHT22;11734;51.046;13.778;2022-09-09T01:18:04;14.20;99.90
23130;DHT22;11734;51.046;13.778;2022-09-09T01:26:37;14.20;99.90
23130;DHT22;11734;51.046;13.778;2022-09-09T01:29:17;14.10;99.90
23130;DHT22;11734;51.046;13.778;2022-09-09T01:34:21;14.30;99.90
23130;DHT22;11734;51.046;13.778;2022-09-09T01:39:24;14.30;99.90
23130;DHT22;11734;51.046;13.778;2022-09-09T01:41:59;14.20;99.90
23130;DHT22;11734;51.046;13.778;2022-09-09T01:44:28;14.20;99.90
23130;DHT22;11734;51.046;13.778;2022-09-09T01:46:57;14.20;99.90
23130;DHT22;11734;51.046;13.778;2022-09-09T01:49:24;14.10;99.90
23130;DHT22;11734;51.046;13.778;2022-09-09T01:51:53;14.10;99.90
23130;DHT22;11734;51.046;13.778;2022-09-09T01:54:35;14.00;99.90
23130;DHT22;11734;51.046;13.778;2022-09-09T02:02:32;14.00;99.90
23130;DHT22;11734;51.046;13.778;2022-09-09T02:05:38;14.00;99.90
23130;DHT22;11734;51.046;13.778;2022-09-09T02:11:13;14.00;99.90
23130;DHT22;11734;51.046;13.778;2022-09-09T02:16:47;13.90;99.90
23130;DHT22;11734;51.046;13.778;2022-09-09T02:19:32;13.90;99.90
23130;DHT22;11734;51.046;13.778;2022-09-09T02:22:12;13.90;99.90
23130;DHT22;11734;51.046;13.778;2022-09-09T02:24:40;14.00;99.90
23130;DHT22;11734;51.046;13.778;2022-09-09T02:27:22;13.80;99.90
23130;DHT22;11734;51.046;13.778;2022-09-09T02:29:51;13.80;99.90
23130;DHT22;11734;51.046;13.778;2022-09-09T02:32:35;13.80;99.90
23130;DHT22;11734;51.046;13.778;2022-09-09T02:35:14;13.80;99.90
23130;DHT22;11734;51.046;13.778;2022-09-09T02:37:45;13.80;99.90
23130;DHT22;11734;51.046;13.778;2022-09-09T02:40:16;13.80;99.90
23130;DHT22;11734;51.046;13.778;2022-09-09T02:42:49;13.70;99.90
23130;DHT22;11734;51.046;13.778;2022-09-09T02:45:25;13.80;99.90
23130;DHT22;11734;51.046;13.778;2022-09-09T02:48:14;13.40;99.90
23130;DHT22;11734;51.046;13.778;2022-09-09T03:06:22;13.70;99.90
23130;DHT22;11734;51.046;13.778;2022-09-09T03:08:58;13.80;99.90
23130;DHT22;11734;51.046;13.778;2022-09-09T03:11:28;13.70;99.90
23130;DHT22;11734;51.046;13.778;2022-09-09T03:13:56;13.50;99.90
23130;DHT22;11734;51.046;13.778;2022-09-09T03:16:25;13.40;99.90
23130;DHT22;11734;51.046;13.778;2022-09-09T03:18:54;13.40;99.90
23130;DHT22;11734;51.046;13.778;2022-09-09T03:21:21;13.40;99.90
23130;DHT22;11734;51.046;13.778;2022-09-09T03:23:49;13.40;99.90
23130;DHT22;11734;51.046;13.778;2022-09-09T03:26:16;13.40;99.90
23130;DHT22;11734;51.046;13.778;2022-09-09T03:28:45;13.40;99.90
23130;DHT22;11734;51.046;13.778;2022-09-09T03:31:16;13.30;99.90
23130;DHT22;11734;51.046;13.778;2022-09-09T03:33:45;13.30;99.90
23130;DHT22;11734;51.046;13.778;2022-09-09T03:36:15;13.30;99.90
23130;DHT22;11734;51.046;13.778;2022-09-09T03:38:42;13.30;99.90
23130;DHT22;11734;51.046;13.778;2022-09-09T03:41:10;13.00;99.90
23130;DHT22;11734;51.046;13.778;2022-09-09T03:43:38;13.30;99.90
23130;DHT22;11734;51.046;13.778;2022-09-09T03:46:06;13.30;99.90
23130;DHT22;11734;51.046;13.778;2022-09-09T03:48:33;13.40;99.90
23130;DHT22;11734;51.046;13.778;2022-09-09T03:51:00;13.30;99.90
23130;DHT22;11734;51.046;13.778;2022-09-09T03:53:32;13.30;99.90
23130;DHT22;11734;51.046;13.778;2022-09-09T03:56:01;13.30;99.90
23130;DHT22;11734;51.046;13.778;2022-09-09T03:58:29;13.20;99.90
23130;DHT22;11734;51.046;13.778;2022-09-09T04:01:06;13.20;99.90
23130;DHT22;11734;51.046;13.778;2022-09-09T04:03:36;13.20;99.90
23130;DHT22;11734;51.046;13.778;2022-09-09T04:06:04;13.10;99.90
23130;DHT22;11734;51.046;13.778;2022-09-09T04:08:34;13.20;99.90
23130;DHT22;11734;51.046;13.778;2022-09-09T04:11:03;13.20;99.90
23130;DHT22;11734;51.046;13.778;2022-09-09T04:13:35;13.20;99.90
23130;DHT22;11734;51.046;13.778;2022-09-09T04:16:10;13.20;99.90
23130;DHT22;11734;51.046;13.778;2022-09-09T04:18:42;13.30;99.90
23130;DHT22;11734;51.046;13.778;2022-09-09T04:21:10;13.30;99.90
23130;DHT22;11734;51.046;13.778;2022-09-09T04:23:39;13.30;99.90
23130;DHT22;11734;51.046;13.778;2022-09-09T04:26:07;13.40;99.90
23130;DHT22;11734;51.046;13.778;2022-09-09T04:28:36;13.40;99.90
23130;DHT22;11734;51.046;13.778;2022-09-09T04:31:17;13.50;99.90
23130;DHT22;11734;51.046;13.778;2022-09-09T04:33:51;13.50;99.90
23130;DHT22;11734;51.046;13.778;2022-09-09T04:36:20;13.60;99.90
23130;DHT22;11734;51.046;13.778;2022-09-09T04:38:49;13.60;99.90
23130;DHT22;11734;51.046;13.778;2022-09-09T04:41:17;13.60;99.90
23130;DHT22;11734;51.046;13.778;2022-09-09T04:43:47;13.70;99.90
23130;DHT22;11734;51.046;13.778;2022-09-09T04:46:15;13.70;99.90
23130;DHT22;11734;51.046;13.778;2022-09-09T04:48:44;13.70;99.90
23130;DHT22;11734;51.046;13.778;2022-09-09T04:51:13;13.70;99.90
23130;DHT22;11734;51.046;13.778;2022-09-09T04:53:42;13.70;99.90
23130;DHT22;11734;51.046;13.778;2022-09-09T04:56:13;13.80;99.90
23130;DHT22;11734;51.046;13.778;2022-09-09T04:58:47;13.80;99.90
23130;DHT22;11734;51.046;13.778;2022-09-09T05:01:20;13.90;99.90
23130;DHT22;11734;51.046;13.778;2022-09-09T05:03:50;14.00;99.90
23130;DHT22;11734;51.046;13.778;2022-09-09T05:06:22;14.00;99.90
23130;DHT22;11734;51.046;13.778;2022-09-09T05:08:55;14.00;99.90
23130;DHT22;11734;51.046;13.778;2022-09-09T05:11:27;14.10;99.90
23130;DHT22;11734;51.046;13.778;2022-09-09T05:14:02;14.20;99.90
23130;DHT22;11734;51.046;13.778;2022-09-09T05:16:31;14.20;99.90
23130;DHT22;11734;51.046;13.778;2022-09-09T05:18:58;14.20;99.90
23130;DHT22;11734;51.046;13.778;2022-09-09T05:21:34;14.30;99.90
23130;DHT22;11734;51.046;13.778;2022-09-09T05:24:01;14.40;99.90
23130;DHT22;11734;51.046;13.778;2022-09-09T05:26:29;14.40;99.90
23130;DHT22;11734;51.046;13.778;2022-09-09T05:28:58;14.50;99.90
23130;DHT22;11734;51.046;13.778;2022-09-09T05:31:30;14.50;99.90
23130;DHT22;11734;51.046;13.778;2022-09-09T05:34:01;14.50;99.90
23130;DHT22;11734;51.046;13.778;2022-09-09T05:36:28;14.60;99.90
23130;DHT22;11734;51.046;13.778;2022-09-09T05:38:56;14.50;99.90
23130;DHT22;11734;51.046;13.778;2022-09-09T05:41:25;14.70;99.90
23130;DHT22;11734;51.046;13.778;2022-09-09T05:43:55;14.80;99.90
23130;DHT22;11734;51.046;13.778;2022-09-09T05:46:23;14.90;99.90
23130;DHT22;11734;51.046;13.778;2022-09-09T05:48:53;15.00;99.90
23130;DHT22;11734;51.046;13.778;2022-09-09T05:51:28;15.10;99.90
23130;DHT22;11734;51.046;13.778;2022-09-09T05:54:00;15.20;99.90
23130;DHT22;11734;51.046;13.778;2022-09-09T05:56:30;15.30;99.90
23130;DHT22;11734;51.046;13.778;2022-09-09T05:58:59;15.40;99.90
23130;DHT22;11734;51.046;13.778;2022-09-09T06:01:30;15.30;99.90
23130;DHT22;11734;51.046;13.778;2022-09-09T06:04:01;15.30;99.90
23130;DHT22;11734;51.046;13.778;2022-09-09T06:06:37;15.30;99.90
23130;DHT22;11734;51.046;13.778;2022-09-09T06:09:16;15.40;99.90
23130;DHT22;11734;51.046;13.778;2022-09-09T06:11:43;15.50;99.90
23130;DHT22;11734;51.046;13.778;2022-09-09T06:14:12;15.50;99.90
23130;DHT22;11734;51.046;13.778;2022-09-09T06:16:39;15.60;99.90
23130;DHT22;11734;51.046;13.778;2022-09-09T06:19:16;15.70;99.90
23130;DHT22;11734;51.046;13.778;2022-09-09T06:21:43;15.80;99.90
23130;DHT22;11734;51.046;13.778;2022-09-09T06:24:11;15.80;99.90
23130;DHT22;11734;51.046;13.778;2022-09-09T06:26:40;15.90;99.90
23130;DHT22;11734;51.046;13.778;2022-09-09T06:29:10;15.90;99.90
23130;DHT22;11734;51.046;13.778;2022-09-09T06:31:39;16.00;99.90
23130;DHT22;11734;51.046;13.778;2022-09-09T06:34:12;15.90;99.90
23130;DHT22;11734;51.046;13.778;2022-09-09T06:36:44;16.00;99.90
23130;DHT22;11734;51.046;13.778;2022-09-09T06:39:12;16.10;99.90
23130;DHT22;11734;51.046;13.778;2022-09-09T06:41:41;16.10;99.90
23130;DHT22;11734;51.046;13.778;2022-09-09T06:44:29;16.20;99.90
23130;DHT22;11734;51.046;13.778;2022-09-09T06:47:02;16.20;99.90
23130;DHT22;11734;51.046;13.778;2022-09-09T06:49:31;16.20;99.90
23130;DHT22;11734;51.046;13.778;2022-09-09T06:51:58;16.30;99.90
23130;DHT22;11734;51.046;13.778;2022-09-09T06:54:26;16.40;99.90
23130;DHT22;11734;51.046;13.778;2022-09-09T06:56:55;16.50;99.90
23130;DHT22;11734;51.046;13.778;2022-09-09T06:59:23;16.50;99.90
23130;DHT22;11734;51.046;13.778;2022-09-09T07:01:53;16.80;99.90
23130;DHT22;11734;51.046;13.778;2022-09-09T07:04:22;16.90;99.90
23130;DHT22;11734;51.046;13.778;2022-09-09T07:06:50;17.00;99.90
23130;DHT22;11734;51.046;13.778;2022-09-09T07:09:22;17.00;99.90
23130;DHT22;11734;51.046;13.778;2022-09-09T07:11:53;17.10;99.90
23130;DHT22;11734;51.046;13.778;2022-09-09T07:14:22;17.20;99.90
23130;DHT22;11734;51.046;13.778;2022-09-09T07:17:00;17.30;99.90
23130;DHT22;11734;51.046;13.778;2022-09-09T07:49:33;18.20;99.90
23130;DHT22;11734;51.046;13.778;2022-09-09T08:02:05;19.00;99.90
23130;DHT22;11734;51.046;13.778;2022-09-09T08:09:40;19.80;99.90
23130;DHT22;11734;51.046;13.778;2022-09-09T08:12:17;20.10;99.90
23130;DHT22;11734;51.046;13.778;2022-09-09T08:14:45;20.20;99.90
23130;DHT22;11734;51.046;13.778;2022-09-09T08:17:12;20.30;99.90
23130;DHT22;11734;51.046;13.778;2022-09-09T08:19:39;20.30;99.90
23130;DHT22;11734;51.046;13.778;2022-09-09T08:22:13;20.20;99.90
23130;DHT22;11734;51.046;13.778;2022-09-09T08:24:40;20.10;99.90
23130;DHT22;11734;51.046;13.778;2022-09-09T08:27:08;20.10;99.90
23130;DHT22;11734;51.046;13.778;2022-09-09T08:29:37;19.70;99.90
23130;DHT22;11734;51.046;13.778;2022-09-09T08:32:05;20.20;99.90
23130;DHT22;11734;51.046;13.778;2022-09-09T08:34:33;20.40;99.90
